createdAt,value
2022-10-08T00:01:32.148Z,101413.28
2022-10-08T00:04:00.761Z,101408.88
2022-10-08T00:06:31.028Z,101409.75
2022-10-08T00:09:02.240Z,101413.28
2022-10-08T00:11:34.823Z,101410.66
2022-10-08T00:14:03.588Z,101414.19
2022-10-08T00:16:35.244Z,101407.13
2022-10-08T00:19:07.992Z,101408.00
2022-10-08T00:21:38.760Z,101401.84
2022-10-08T00:24:09.589Z,101396.59
2022-10-08T00:26:43.640Z,101417.69
2022-10-08T00:29:14.561Z,101400.13
2022-10-08T00:31:45.954Z,101404.50
2022-10-08T00:34:18.345Z,101407.13
2022-10-08T00:36:47.425Z,101408.94
2022-10-08T00:39:18.201Z,101404.53
2022-10-08T00:41:52.242Z,101411.56
2022-10-08T00:44:54.096Z,101408.06
2022-10-08T00:47:37.327Z,101405.44
2022-10-08T00:50:11.432Z,101405.44
2022-10-08T00:52:45.254Z,101392.22
2022-10-08T00:55:16.519Z,101383.47
2022-10-08T00:57:46.206Z,101392.22
2022-10-08T01:00:20.811Z,101392.22
2022-10-08T01:02:49.507Z,101391.38
2022-10-08T01:05:27.738Z,101394.88
2022-10-08T01:08:05.509Z,101390.47
2022-10-08T01:10:41.542Z,101399.28
2022-10-08T01:13:22.417Z,101401.06
2022-10-08T01:16:02.022Z,101395.81
2022-10-08T01:18:42.499Z,101403.75
2022-10-08T01:21:13.948Z,101404.72
2022-10-08T01:24:52.524Z,101434.63
2022-10-08T01:27:29.746Z,101430.25
2022-10-08T01:30:00.815Z,101429.38
2022-10-08T01:32:37.191Z,101416.22
2022-10-08T01:35:12.048Z,101405.69
2022-10-08T01:37:43.085Z,101404.81
2022-10-08T01:40:16.990Z,101403.06
2022-10-08T01:42:49.403Z,101403.13
2022-10-08T01:45:25.119Z,101406.66
2022-10-08T01:47:55.821Z,101404.91
2022-10-08T01:50:28.230Z,101404.91
2022-10-08T01:53:00.704Z,101399.66
2022-10-08T01:55:33.014Z,101390.91
2022-10-08T01:58:07.184Z,101409.34
2022-10-08T02:00:36.819Z,101406.69
2022-10-08T02:03:05.500Z,101411.09
2022-10-08T02:05:36.595Z,101416.38
2022-10-08T02:08:05.562Z,101407.56
2022-10-08T02:10:33.893Z,101409.34
2022-10-08T02:13:03.841Z,101418.97
2022-10-08T02:15:41.902Z,101415.50
2022-10-08T02:18:16.348Z,101414.59
2022-10-08T02:20:51.940Z,101423.31
2022-10-08T02:23:27.257Z,101418.06
2022-10-08T02:25:59.906Z,101420.69
2022-10-08T02:28:37.553Z,101408.41
2022-10-08T02:31:11.583Z,101411.88
2022-10-08T02:33:45.247Z,101428.53
2022-10-08T02:36:19.086Z,101431.13
2022-10-08T02:38:53.877Z,101427.63
2022-10-08T02:41:26.418Z,101428.50
2022-10-08T02:43:59.804Z,101424.09
2022-10-08T02:46:30.858Z,101425.84
2022-10-08T02:49:06.015Z,101423.19
2022-10-08T02:51:38.690Z,101431.94
2022-10-08T02:54:07.558Z,101438.06
2022-10-08T02:56:40.247Z,101439.81
2022-10-08T02:59:10.666Z,101439.81
2022-10-08T03:01:46.345Z,101443.28
2022-10-08T03:04:18.946Z,101445.03
2022-10-08T03:06:48.826Z,101438.88
2022-10-08T03:09:18.517Z,101444.13
2022-10-08T03:11:47.327Z,101442.34
2022-10-08T03:14:20.508Z,101443.22
2022-10-08T03:16:49.435Z,101443.19
2022-10-08T03:19:19.860Z,101433.56
2022-10-08T03:21:51.632Z,101437.06
2022-10-08T03:24:19.785Z,101437.03
2022-10-08T03:26:47.941Z,101444.03
2022-10-08T03:29:17.450Z,101445.78
2022-10-08T03:31:45.501Z,101450.16
2022-10-08T03:34:13.590Z,101449.25
2022-10-08T03:36:41.885Z,101451.88
2022-10-08T03:39:11.575Z,101454.50
2022-10-08T03:41:40.045Z,101456.28
2022-10-08T03:44:10.699Z,101450.13
2022-10-08T03:46:40.616Z,101457.16
2022-10-08T03:49:08.900Z,101446.63
2022-10-08T03:51:37.079Z,101457.19
2022-10-08T03:54:05.558Z,101461.63
2022-10-08T03:56:34.433Z,101454.63
2022-10-08T03:59:03.934Z,101458.16
2022-10-08T04:01:32.205Z,101451.16
2022-10-08T04:04:01.700Z,101458.19
2022-10-08T04:06:29.885Z,101461.72
2022-10-08T04:09:01.078Z,101459.06
2022-10-08T04:11:30.651Z,101467.81
2022-10-08T04:13:58.853Z,101466.06
2022-10-08T04:16:26.935Z,101463.41
2022-10-08T04:18:55.197Z,101470.38
2022-10-08T04:21:24.649Z,101472.13
2022-10-08T04:23:52.856Z,101473.00
2022-10-08T04:26:20.941Z,101470.34
2022-10-08T04:28:49.210Z,101480.88
2022-10-08T04:31:21.684Z,101472.09
2022-10-08T04:33:51.051Z,101473.81
2022-10-08T04:36:21.728Z,101486.09
2022-10-08T04:38:52.033Z,101480.81
2022-10-08T04:41:23.202Z,101484.31
2022-10-08T04:43:52.911Z,101478.13
2022-10-08T04:46:23.121Z,101486.88
2022-10-08T04:48:53.789Z,101491.25
2022-10-08T04:51:23.505Z,101482.47
2022-10-08T04:53:53.960Z,101492.09
2022-10-08T04:56:24.581Z,101489.44
2022-10-08T04:58:55.055Z,101496.44
2022-10-08T05:01:24.992Z,101495.53
2022-10-08T05:03:56.546Z,101493.78
2022-10-08T05:06:28.114Z,101499.88
2022-10-08T05:08:59.843Z,101498.13
2022-10-08T05:11:28.675Z,101503.38
2022-10-08T05:13:59.045Z,101498.97
2022-10-08T05:16:28.298Z,101503.34
2022-10-08T05:18:57.506Z,101502.44
2022-10-08T05:21:28.289Z,101512.97
2022-10-08T05:24:00.043Z,101508.56
2022-10-08T05:26:58.017Z,101512.00
2022-10-08T05:29:20.629Z,101512.84
2022-10-08T05:31:48.788Z,101518.94
2022-10-08T05:34:17.135Z,101524.22
2022-10-08T05:36:45.856Z,101523.34
2022-10-08T05:39:15.695Z,101521.59
2022-10-08T05:41:44.293Z,101523.31
2022-10-08T05:44:13.099Z,101531.19
2022-10-08T05:46:41.609Z,101521.50
2022-10-08T05:49:18.157Z,101532.91
2022-10-08T05:51:46.301Z,101540.78
2022-10-08T05:54:16.659Z,101543.41
2022-10-08T05:56:45.110Z,101542.50
2022-10-08T05:59:18.084Z,101544.28
2022-10-08T06:01:46.555Z,101550.38
2022-10-08T06:04:15.041Z,101551.28
2022-10-08T06:06:44.526Z,101559.16
2022-10-08T06:09:16.895Z,101554.81
2022-10-08T06:11:45.072Z,101553.03
2022-10-08T06:14:16.728Z,101553.91
2022-10-08T06:16:45.031Z,101567.03
2022-10-08T06:19:13.312Z,101570.56
2022-10-08T06:21:41.698Z,101579.34
2022-10-08T06:24:12.646Z,101575.84
2022-10-08T06:26:44.296Z,101577.59
2022-10-08T06:29:16.417Z,101585.47
2022-10-08T06:31:45.073Z,101592.50
2022-10-08T06:34:13.305Z,101598.69
2022-10-08T06:36:41.523Z,101601.34
2022-10-08T06:39:13.220Z,101609.25
2022-10-08T06:41:43.422Z,101607.53
2022-10-08T06:44:13.724Z,101618.06
2022-10-08T06:46:42.151Z,101618.94
2022-10-08T06:49:12.261Z,101630.38
2022-10-08T06:51:40.450Z,101626.91
2022-10-08T06:54:08.954Z,101632.28
2022-10-08T06:56:38.263Z,101632.34
2022-10-08T06:59:08.314Z,101641.22
2022-10-08T07:01:37.181Z,101636.94
2022-10-08T07:04:07.000Z,101640.47
2022-10-08T07:06:35.953Z,101643.19
2022-10-08T07:09:06.802Z,101639.69
2022-10-08T07:11:35.068Z,101656.38
2022-10-08T07:14:03.289Z,101681.06
2022-10-08T07:16:32.888Z,101666.22
2022-10-08T07:19:01.860Z,101686.41
2022-10-08T07:21:31.326Z,101688.19
2022-10-08T07:24:01.997Z,101688.22
2022-10-08T07:26:34.196Z,101700.59
2022-10-08T07:29:06.887Z,101694.53
2022-10-08T07:31:37.838Z,101698.03
2022-10-08T07:34:08.582Z,101715.56
2022-10-08T07:36:37.243Z,101712.00
2022-10-08T07:39:08.261Z,101712.00
2022-10-08T07:41:36.839Z,101713.78
2022-10-08T07:44:06.932Z,101722.56
2022-10-08T07:46:38.795Z,101719.03
2022-10-08T07:49:06.906Z,101724.31
2022-10-08T07:51:36.522Z,101725.22
2022-10-08T07:54:07.397Z,101728.69
2022-10-08T07:56:37.621Z,101726.06
2022-10-08T07:59:07.274Z,101729.63
2022-10-08T08:01:37.115Z,101724.44
2022-10-08T08:04:07.543Z,101727.16
2022-10-08T08:06:41.421Z,101726.34
2022-10-08T08:09:10.344Z,101728.97
2022-10-08T08:11:39.970Z,101736.88
2022-10-08T08:14:08.650Z,101742.13
2022-10-08T08:16:38.356Z,101743.03
2022-10-08T08:19:07.045Z,101754.47
2022-10-08T08:21:37.897Z,101751.81
2022-10-08T08:24:07.929Z,101745.69
2022-10-08T08:26:39.035Z,101763.28
2022-10-08T08:29:09.771Z,101770.31
2022-10-08T08:31:43.361Z,101773.84
2022-10-08T08:34:14.994Z,101776.50
2022-10-08T08:36:45.479Z,101777.44
2022-10-08T08:39:18.303Z,101790.63
2022-10-08T08:42:24.588Z,101785.38
2022-10-08T08:44:59.971Z,101788.00
2022-10-08T08:47:37.042Z,101797.66
2022-10-08T08:50:14.360Z,101802.97
2022-10-08T08:52:43.796Z,101800.31
2022-10-08T08:55:17.545Z,101806.47
2022-10-08T08:57:57.280Z,101810.00
2022-10-08T09:00:32.264Z,101810.84
2022-10-08T09:03:05.482Z,101809.03
2022-10-08T09:05:41.771Z,101826.63
2022-10-08T09:08:18.217Z,101830.09
2022-10-08T09:10:52.542Z,101837.13
2022-10-08T09:13:23.686Z,101838.00
2022-10-08T09:15:52.998Z,101845.94
2022-10-08T09:18:22.917Z,101831.84
2022-10-08T09:20:51.020Z,101841.56
2022-10-08T09:23:21.826Z,101844.25
2022-10-08T09:25:57.554Z,101842.50
2022-10-08T09:28:45.746Z,101843.38
2022-10-08T09:31:25.382Z,101847.75
2022-10-08T09:34:03.118Z,101853.91
2022-10-08T09:36:39.537Z,101857.44
2022-10-08T09:39:18.421Z,101858.28
2022-10-08T09:41:49.005Z,101859.16
2022-10-08T09:44:21.472Z,101863.50
2022-10-08T09:47:05.425Z,101866.03
2022-10-08T09:49:38.374Z,101869.47
2022-10-08T09:52:17.191Z,101861.50
2022-10-08T09:54:49.572Z,101861.47
2022-10-08T09:57:20.385Z,101862.16
2022-10-08T09:59:55.989Z,101853.16
2022-10-08T10:02:34.618Z,101871.44
2022-10-08T10:05:07.207Z,101880.53
2022-10-08T10:07:42.281Z,101883.41
2022-10-08T10:10:26.532Z,101879.97
2022-10-08T10:12:59.694Z,101882.56
2022-10-08T10:15:33.543Z,101877.91
2022-10-08T10:18:06.841Z,101899.69
2022-10-08T10:20:42.439Z,101903.44
2022-10-08T10:23:16.330Z,101912.78
2022-10-08T10:25:49.745Z,101931.47
2022-10-08T10:28:27.057Z,101938.47
2022-10-08T10:31:00.959Z,101923.41
2022-10-08T10:33:34.558Z,101920.63
2022-10-08T10:36:11.914Z,101923.16
2022-10-08T10:38:46.840Z,101915.13
2022-10-08T10:41:24.596Z,101923.88
2022-10-08T10:43:55.920Z,101913.41
2022-10-08T10:46:35.464Z,101917.84
2022-10-08T10:49:04.000Z,101919.63
2022-10-08T10:51:56.748Z,101924.91
2022-10-08T10:54:52.232Z,101924.91
2022-10-08T10:57:40.497Z,101924.97
2022-10-08T11:00:15.622Z,101926.78
2022-10-08T11:02:50.994Z,101926.91
2022-10-08T11:05:25.689Z,101951.53
2022-10-08T11:08:13.056Z,101932.16
2022-10-08T11:10:56.390Z,101940.84
2022-10-08T11:13:38.138Z,101961.84
2022-10-08T11:16:22.628Z,101953.00
2022-10-08T11:18:54.663Z,101942.56
2022-10-08T11:21:46.225Z,101940.03
2022-10-08T11:24:53.196Z,101949.88
2022-10-08T11:27:34.453Z,101944.63
2022-10-08T11:30:12.070Z,101940.25
2022-10-08T11:32:41.694Z,101939.38
2022-10-08T11:35:31.065Z,101956.13
2022-10-08T11:38:10.756Z,101964.03
2022-10-08T11:40:44.571Z,101971.03
2022-10-08T11:43:19.110Z,101973.69
2022-10-08T11:45:49.794Z,101971.06
2022-10-08T11:48:34.731Z,101979.88
2022-10-08T11:51:38.400Z,101979.88
2022-10-08T11:54:15.488Z,101983.38
2022-10-08T11:56:48.120Z,101981.63
2022-10-08T11:59:37.395Z,101980.72
2022-10-08T12:02:08.558Z,101985.94
2022-10-08T12:04:38.800Z,101993.81
2022-10-08T12:07:27.609Z,102002.50
2022-10-08T12:10:34.963Z,102003.25
2022-10-08T12:13:28.586Z,102005.81
2022-10-08T12:16:08.181Z,102007.47
2022-10-08T12:18:45.772Z,102011.09
2022-10-08T12:21:56.799Z,102010.22
2022-10-08T12:24:56.269Z,102016.13
2022-10-08T12:27:30.659Z,102010.59
2022-10-08T12:30:06.861Z,102002.53
2022-10-08T12:32:56.985Z,101998.94
2022-10-08T12:35:31.554Z,101998.97
2022-10-08T12:38:26.234Z,102002.47
2022-10-08T12:41:11.951Z,102015.53
2022-10-08T12:43:48.798Z,102016.22
2022-10-08T12:46:33.913Z,102003.41
2022-10-08T12:49:07.448Z,102005.97
2022-10-08T12:51:45.169Z,102004.50
2022-10-08T12:54:21.333Z,102003.66
2022-10-08T12:56:50.725Z,102000.09
2022-10-08T12:59:19.736Z,102010.56
2022-10-08T13:01:51.610Z,102010.56
2022-10-08T13:04:22.318Z,102024.66
2022-10-08T13:06:52.661Z,102026.22
2022-10-08T13:09:28.974Z,102016.22
2022-10-08T13:12:03.393Z,102023.25
2022-10-08T13:14:34.695Z,102023.53
2022-10-08T13:17:08.933Z,102015.81
2022-10-08T13:19:39.187Z,102027.34
2022-10-08T13:22:24.226Z,102031.72
2022-10-08T13:24:52.897Z,102034.28
2022-10-08T13:27:27.296Z,102040.50
2022-10-08T13:29:55.939Z,102051.09
2022-10-08T13:32:26.903Z,102051.09
2022-10-08T13:34:58.523Z,102043.31
2022-10-08T13:37:31.448Z,102030.94
2022-10-08T13:40:01.883Z,102046.75
2022-10-08T13:42:33.168Z,102046.75
2022-10-08T13:45:02.976Z,102063.34
2022-10-08T13:47:32.696Z,102064.03
2022-10-08T13:50:02.256Z,102062.94
2022-10-08T13:52:33.431Z,102061.88
2022-10-08T13:55:04.993Z,102075.78
2022-10-08T13:57:33.839Z,102067.78
2022-10-08T14:00:01.934Z,102073.06
2022-10-08T14:02:30.126Z,102080.06
2022-10-08T14:04:59.633Z,102080.09
2022-10-08T14:07:32.534Z,102073.19
2022-10-08T14:10:01.987Z,102083.03
2022-10-08T14:12:34.052Z,102081.44
2022-10-08T14:15:03.023Z,102083.38
2022-10-08T14:17:32.562Z,102079.09
2022-10-08T14:20:04.568Z,102077.41
2022-10-08T14:22:38.789Z,102086.25
2022-10-08T14:25:11.919Z,102078.34
2022-10-08T14:27:40.149Z,102080.16
2022-10-08T14:30:11.417Z,102086.38
2022-10-08T14:32:39.840Z,102086.38
2022-10-08T14:35:10.719Z,102092.59
2022-10-08T14:37:39.415Z,102090.88
2022-10-08T14:40:10.212Z,102093.53
2022-10-08T14:42:38.388Z,102097.06
2022-10-08T14:45:07.971Z,102098.84
2022-10-08T14:47:36.103Z,102112.06
2022-10-08T14:50:04.520Z,102112.06
2022-10-08T14:52:34.983Z,102112.91
2022-10-08T14:55:03.114Z,102104.13
2022-10-08T14:57:31.377Z,102104.13
2022-10-08T14:59:59.549Z,102109.41
2022-10-08T15:02:27.796Z,102120.84
2022-10-08T15:04:56.066Z,102115.56
2022-10-08T15:07:24.206Z,102120.84
2022-10-08T15:09:53.705Z,102111.16
2022-10-08T15:12:21.851Z,102134.97
2022-10-08T15:14:49.933Z,102126.16
2022-10-08T15:17:18.306Z,102125.28
2022-10-08T15:19:46.902Z,102130.56
2022-10-08T15:22:15.042Z,102128.78
2022-10-08T15:24:43.309Z,102138.50
2022-10-08T15:27:15.242Z,102144.69
2022-10-08T15:29:46.831Z,102143.78
2022-10-08T15:32:15.799Z,102149.06
2022-10-08T15:34:44.024Z,102140.25
2022-10-08T15:37:12.317Z,102142.91
2022-10-08T15:39:40.789Z,102143.69
2022-10-08T15:42:11.547Z,102148.59
2022-10-08T15:44:44.202Z,102149.09
2022-10-08T15:47:12.268Z,102147.53
2022-10-08T15:49:42.816Z,102159.25
2022-10-08T15:52:14.267Z,102154.13
2022-10-08T15:54:43.590Z,102162.25
2022-10-08T15:57:14.796Z,102166.69
2022-10-08T15:59:44.785Z,102170.22
2022-10-08T16:02:17.422Z,102173.75
2022-10-08T16:04:47.801Z,102173.69
2022-10-08T16:07:16.239Z,102170.06
2022-10-08T16:09:44.438Z,102177.03
2022-10-08T16:12:12.584Z,102182.25
2022-10-08T16:14:40.765Z,102186.59
2022-10-08T16:17:10.700Z,102192.69
2022-10-08T16:19:38.865Z,102198.81
2022-10-08T16:22:08.038Z,102202.25
2022-10-08T16:24:36.264Z,102199.50
2022-10-08T16:27:04.697Z,102204.78
2022-10-08T16:29:32.817Z,102199.41
2022-10-08T16:32:00.924Z,102209.94
2022-10-08T16:34:31.761Z,102212.56
2022-10-08T16:37:01.397Z,102202.91
2022-10-08T16:39:29.626Z,102212.59
2022-10-08T16:41:57.798Z,102217.88
2022-10-08T16:44:25.985Z,102219.59
2022-10-08T16:46:54.628Z,102223.09
2022-10-08T16:49:26.273Z,102220.38
2022-10-08T16:51:59.036Z,102233.50
2022-10-08T16:54:28.605Z,102231.63
2022-10-08T16:56:57.125Z,102242.94
2022-10-08T16:59:28.138Z,102235.78
2022-10-08T17:01:59.407Z,102243.56
2022-10-08T17:04:29.758Z,102246.09
2022-10-08T17:06:59.422Z,102247.72
2022-10-08T17:09:27.727Z,102252.03
2022-10-08T17:11:55.824Z,102264.28
2022-10-08T17:14:23.927Z,102259.81
2022-10-08T17:16:53.448Z,102252.72
2022-10-08T17:19:21.708Z,102265.75
2022-10-08T17:21:49.850Z,102271.81
2022-10-08T17:24:19.434Z,102270.81
2022-10-08T17:26:49.601Z,102269.88
2022-10-08T17:29:17.766Z,102280.28
2022-10-08T17:31:45.904Z,102283.72
2022-10-08T17:34:14.142Z,102281.03
2022-10-08T17:36:44.130Z,102283.59
2022-10-08T17:39:15.070Z,102290.47
2022-10-08T17:41:44.904Z,102296.47
2022-10-08T17:44:13.904Z,102307.69
2022-10-08T17:46:45.921Z,102311.03
2022-10-08T17:49:15.086Z,102298.59
2022-10-08T17:51:43.438Z,102318.53
2022-10-08T17:54:14.823Z,102310.56
2022-10-08T17:56:44.673Z,102326.25
2022-10-08T17:59:15.642Z,102324.38
2022-10-08T18:01:45.284Z,102320.75
2022-10-08T18:04:16.698Z,102324.16
2022-10-08T18:06:47.142Z,102318.84
2022-10-08T18:09:18.476Z,102319.69
2022-10-08T18:11:51.812Z,102323.06
2022-10-08T18:14:20.735Z,102330.00
2022-10-08T18:16:49.115Z,102326.38
2022-10-08T18:19:18.043Z,102330.66
2022-10-08T18:21:46.725Z,102327.00
2022-10-08T18:24:15.011Z,102339.09
2022-10-08T18:26:43.404Z,102345.09
2022-10-08T18:29:15.410Z,102338.06
2022-10-08T18:31:46.460Z,102347.59
2022-10-08T18:34:18.227Z,102350.22
2022-10-08T18:36:47.283Z,102353.75
2022-10-08T18:39:17.665Z,102363.53
2022-10-08T18:41:48.639Z,102356.72
2022-10-08T18:44:21.422Z,102361.09
2022-10-08T18:46:50.315Z,102358.28
2022-10-08T18:49:20.710Z,102361.63
2022-10-08T18:51:51.035Z,102364.09
2022-10-08T18:54:19.432Z,102357.78
2022-10-08T18:56:47.576Z,102362.88
2022-10-08T18:59:18.637Z,102363.53
2022-10-08T19:01:48.591Z,102364.25
2022-10-08T19:04:19.508Z,102374.69
2022-10-08T19:06:50.313Z,102380.69
2022-10-08T19:09:18.883Z,102381.50
2022-10-08T19:11:49.726Z,102378.78
2022-10-08T19:14:22.362Z,102383.91
2022-10-08T19:16:50.961Z,102386.41
2022-10-08T19:19:21.023Z,102391.59
2022-10-08T19:21:50.511Z,102392.38
2022-10-08T19:24:20.779Z,102394.09
2022-10-08T19:26:50.216Z,102401.03
2022-10-08T19:29:22.593Z,102401.03
2022-10-08T19:31:51.222Z,102399.22
2022-10-08T19:34:22.345Z,102400.94
2022-10-08T19:36:50.744Z,102405.31
2022-10-08T19:39:20.947Z,102407.88
2022-10-08T19:41:49.921Z,102413.13
2022-10-08T19:44:20.323Z,102413.22
2022-10-08T19:46:48.597Z,102420.34
2022-10-08T19:49:17.517Z,102421.38
2022-10-08T19:51:46.213Z,102424.84
2022-10-08T19:54:14.780Z,102429.25
2022-10-08T19:56:43.411Z,102430.94
2022-10-08T19:59:12.895Z,102439.59
2022-10-08T20:01:44.767Z,102436.06
2022-10-08T20:04:14.086Z,102442.94
2022-10-08T20:06:43.658Z,102440.25
2022-10-08T20:09:14.016Z,102439.28
2022-10-08T20:11:44.505Z,102446.16
2022-10-08T20:14:14.679Z,102448.63
2022-10-08T20:16:45.003Z,102443.25
2022-10-08T20:19:18.256Z,102443.97
2022-10-08T20:21:46.739Z,102438.53
2022-10-08T20:24:15.680Z,102441.84
2022-10-08T20:26:45.205Z,102448.69
2022-10-08T20:29:15.727Z,102446.00
2022-10-08T20:31:49.452Z,102454.69
2022-10-08T20:34:19.873Z,102451.06
2022-10-08T20:36:49.385Z,102445.63
2022-10-08T20:39:22.818Z,102454.34
2022-10-08T20:41:51.833Z,102450.78
2022-10-08T20:44:20.499Z,102448.91
2022-10-08T20:46:50.854Z,102449.72
2022-10-08T20:49:19.697Z,102452.19
2022-10-08T20:51:48.067Z,102455.47
2022-10-08T20:54:18.036Z,102451.00
2022-10-08T20:56:46.488Z,102448.25
2022-10-08T20:59:17.652Z,102459.53
2022-10-08T21:01:46.857Z,102463.75
2022-10-08T21:04:16.530Z,102465.44
2022-10-08T21:06:47.044Z,102470.59
2022-10-08T21:09:16.998Z,102469.66
2022-10-08T21:11:46.856Z,102469.59
2022-10-08T21:14:18.434Z,102467.84
2022-10-08T21:16:46.773Z,102471.28
2022-10-08T21:19:21.949Z,102473.88
2022-10-08T21:21:50.475Z,102470.31
2022-10-08T21:24:18.883Z,102468.50
2022-10-08T21:26:47.127Z,102468.41
2022-10-08T21:29:16.309Z,102477.97
2022-10-08T21:31:44.772Z,102477.91
2022-10-08T21:34:15.174Z,102472.56
2022-10-08T21:36:44.652Z,102476.94
2022-10-08T21:39:17.674Z,102475.13
2022-10-08T21:41:46.263Z,102480.28
2022-10-08T21:44:15.378Z,102481.94
2022-10-08T21:46:44.038Z,102479.28
2022-10-08T21:49:16.527Z,102486.31
2022-10-08T21:51:45.486Z,102487.06
2022-10-08T21:54:14.400Z,102487.97
2022-10-08T21:56:43.504Z,102486.31
2022-10-08T21:59:14.559Z,102489.81
2022-10-08T22:01:45.359Z,102492.28
2022-10-08T22:04:17.553Z,102494.09
2022-10-08T22:06:48.542Z,102495.78
2022-10-08T22:09:19.159Z,102494.00
2022-10-08T22:11:47.631Z,102486.16
2022-10-08T22:14:16.388Z,102488.78
2022-10-08T22:16:44.908Z,102486.97
2022-10-08T22:19:14.824Z,102489.53
2022-10-08T22:21:43.055Z,102491.31
2022-10-08T22:24:11.411Z,102491.25
2022-10-08T22:26:42.765Z,102486.88
2022-10-08T22:29:11.251Z,102489.53
2022-10-08T22:31:40.378Z,102497.38
2022-10-08T22:34:08.868Z,102501.72
2022-10-08T22:36:42.402Z,102497.34
2022-10-08T22:39:10.984Z,102496.41
2022-10-08T22:41:39.510Z,102493.78
2022-10-08T22:44:07.919Z,102496.41
2022-10-08T22:46:38.961Z,102493.00
2022-10-08T22:49:09.745Z,102492.34
2022-10-08T22:51:40.154Z,102496.91
2022-10-08T22:54:10.016Z,102501.31
2022-10-08T22:56:38.213Z,102495.06
2022-10-08T22:59:06.397Z,102496.78
2022-10-08T23:01:34.522Z,102495.78
2022-10-08T23:04:02.585Z,102500.13
2022-10-08T23:06:33.626Z,102495.78
2022-10-08T23:09:05.507Z,102500.22
2022-10-08T23:11:34.339Z,102494.97
2022-10-08T23:14:03.179Z,102487.06
2022-10-08T23:16:34.007Z,102492.22
2022-10-08T23:19:05.153Z,102493.78
2022-10-08T23:21:33.719Z,102497.06
2022-10-08T23:24:03.656Z,102493.50
2022-10-08T23:26:31.941Z,102491.69
2022-10-08T23:29:01.853Z,102488.91
2022-10-08T23:31:32.047Z,102500.00
2022-10-08T23:34:01.270Z,102498.03
2022-10-08T23:36:34.686Z,102498.66
2022-10-08T23:39:05.584Z,102496.69
2022-10-08T23:41:33.959Z,102500.03
2022-10-08T23:44:02.131Z,102494.66
2022-10-08T23:46:31.758Z,102502.47
2022-10-08T23:49:01.064Z,102501.38
2022-10-08T23:51:32.101Z,102494.31
2022-10-08T23:54:01.012Z,102493.34
2022-10-08T23:56:31.024Z,102505.34
2022-10-08T23:58:59.544Z,102501.81
